Time;durP1;ratioP1;P1;durP2;ratioP2;P2;SDS_P1;SDS_P2;PMS_P1;PMS_P2;Temp;Humidity;BMP_temperature;BMP_pressure;BME280_temperature;BME280_humidity;BME280_pressure;Samples;Min_cycle;Max_cycle;Signal;HPM_P1;HPM_P2
2023/01/26 00:01:43;;;;;;;139.95;34.53;;;;;;;;;;4992390;28;20368;-69
2023/01/26 00:04:08;;;;;;;144.40;36.35;;;;;;;;;;4986103;28;20018;-69
2023/01/26 00:06:34;;;;;;;150.43;37.38;;;;;;;;;;4992903;28;20030;-69
2023/01/26 00:08:59;;;;;;;147.80;36.45;;;;;;;;;;4991342;28;20398;-68
2023/01/26 00:11:28;;;;;;;162.07;38.08;;;;;;;;;;4993099;28;20486;-67
2023/01/26 00:13:54;;;;;;;151.88;36.00;;;;;;;;;;4966245;28;20057;-68
2023/01/26 00:16:19;;;;;;;149.75;37.10;;;;;;;;;;4987910;28;20053;-68
2023/01/26 00:18:44;;;;;;;139.23;37.90;;;;;;;;;;4985820;28;20026;-68
2023/01/26 00:21:13;;;;;;;141.35;35.28;;;;;;;;;;4990736;28;20073;-69
2023/01/26 00:23:39;;;;;;;147.68;37.75;;;;;;;;;;4993011;28;20022;-69
2023/01/26 00:26:05;;;;;;;157.45;36.45;;;;;;;;;;4990074;28;20072;-69
2023/01/26 00:28:30;;;;;;;128.93;33.50;;;;;;;;;;4991339;28;20505;-69
2023/01/26 00:31:02;;;;;;;184.40;49.20;;;;;;;;;;4988218;28;20038;-69
2023/01/26 00:33:28;;;;;;;159.40;37.60;;;;;;;;;;4995123;28;20287;-69
2023/01/26 00:35:53;;;;;;;146.40;35.42;;;;;;;;;;4992521;28;20088;-69
2023/01/26 00:38:18;;;;;;;165.18;42.10;;;;;;;;;;4990722;28;20138;-69
2023/01/26 00:40:43;;;;;;;155.80;38.97;;;;;;;;;;4992111;28;20478;-69
2023/01/26 00:43:09;;;;;;;150.02;39.30;;;;;;;;;;4991399;28;20054;-69
2023/01/26 00:45:34;;;;;;;151.20;37.05;;;;;;;;;;4994552;28;20046;-68
2023/01/26 00:47:59;;;;;;;161.10;39.20;;;;;;;;;;4992888;28;20382;-69
2023/01/26 00:50:25;;;;;;;162.60;38.00;;;;;;;;;;4991494;28;20533;-68
2023/01/26 00:52:50;;;;;;;175.77;41.33;;;;;;;;;;4991046;28;20034;-68
2023/01/26 00:55:15;;;;;;;165.80;42.30;;;;;;;;;;4988564;28;20026;-69
2023/01/26 00:57:40;;;;;;;182.27;41.08;;;;;;;;;;4992378;28;20442;-68
2023/01/26 01:00:06;;;;;;;166.60;41.38;;;;;;;;;;4990713;28;20050;-69
2023/01/26 01:02:31;;;;;;;169.10;41.17;;;;;;;;;;4992660;28;20093;-69
2023/01/26 01:04:57;;;;;;;154.77;38.40;;;;;;;;;;4988120;28;20022;-69
2023/01/26 01:07:22;;;;;;;145.07;37.58;;;;;;;;;;4993686;28;20125;-69
2023/01/26 01:09:47;;;;;;;142.07;36.58;;;;;;;;;;4988277;28;20014;-69
2023/01/26 01:12:12;;;;;;;145.50;35.10;;;;;;;;;;4990155;28;20403;-68
2023/01/26 01:14:37;;;;;;;143.32;37.00;;;;;;;;;;4985989;28;20518;-68
2023/01/26 01:17:02;;;;;;;154.77;38.25;;;;;;;;;;4992564;28;20053;-69
2023/01/26 01:19:28;;;;;;;129.98;33.85;;;;;;;;;;4991342;28;20041;-69
2023/01/26 01:21:53;;;;;;;137.60;36.95;;;;;;;;;;4991163;28;20389;-69
2023/01/26 01:24:18;;;;;;;154.75;36.17;;;;;;;;;;4991013;28;20026;-68
2023/01/26 01:26:44;;;;;;;139.13;34.72;;;;;;;;;;4989444;28;20368;-68
2023/01/26 01:29:11;;;;;;;132.38;34.35;;;;;;;;;;4991380;28;20023;-69
2023/01/26 01:31:37;;;;;;;150.25;39.83;;;;;;;;;;4973629;28;20026;-68
2023/01/26 01:34:02;;;;;;;135.07;37.65;;;;;;;;;;4995670;28;20026;-68
2023/01/26 01:36:28;;;;;;;137.15;36.25;;;;;;;;;;4996207;28;20025;-68
2023/01/26 01:38:53;;;;;;;142.32;36.10;;;;;;;;;;4997266;28;20076;-68
2023/01/26 01:41:20;;;;;;;143.68;34.88;;;;;;;;;;4988855;28;20038;-68
2023/01/26 01:43:45;;;;;;;140.48;35.13;;;;;;;;;;4998168;28;20018;-68
2023/01/26 01:46:33;;;;;;;141.90;34.97;;;;;;;;;;4997417;28;20093;-68
2023/01/26 01:49:01;;;;;;;142.43;34.80;;;;;;;;;;4983960;28;20057;-69
2023/01/26 01:51:37;;;;;;;128.77;34.35;;;;;;;;;;4979661;28;20105;-68
2023/01/26 01:54:05;;;;;;;127.47;34.30;;;;;;;;;;4993836;28;20068;-69
2023/01/26 01:56:31;;;;;;;118.45;34.70;;;;;;;;;;4998428;28;20674;-69
2023/01/26 01:58:57;;;;;;;127.40;34.28;;;;;;;;;;4992502;28;20084;-68
2023/01/26 02:01:23;;;;;;;122.88;34.17;;;;;;;;;;4994636;28;20034;-68
2023/01/26 02:03:51;;;;;;;116.55;35.10;;;;;;;;;;4990498;28;20014;-68
2023/01/26 02:06:21;;;;;;;103.25;31.38;;;;;;;;;;4994983;28;20023;-68
2023/01/26 02:08:48;;;;;;;110.95;31.05;;;;;;;;;;4972990;28;20030;-68
2023/01/26 02:11:20;;;;;;;115.32;33.92;;;;;;;;;;4977928;28;20029;-69
2023/01/26 02:13:47;;;;;;;91.43;22.60;;;;;;;;;;4993794;28;20029;-69
2023/01/26 02:16:13;;;;;;;129.52;33.75;;;;;;;;;;4995860;28;20057;-69
2023/01/26 02:18:38;;;;;;;91.10;22.92;;;;;;;;;;4995760;28;20041;-68
2023/01/26 02:21:05;;;;;;;105.38;31.25;;;;;;;;;;4994838;28;20524;-68
2023/01/26 02:23:40;;;;;;;109.43;31.30;;;;;;;;;;4993111;28;20117;-69
2023/01/26 02:26:07;;;;;;;144.13;37.13;;;;;;;;;;4995405;28;20514;-69
2023/01/26 02:28:33;;;;;;;138.77;34.88;;;;;;;;;;4991474;28;20054;-69
2023/01/26 02:30:58;;;;;;;117.53;32.47;;;;;;;;;;4995630;28;20080;-69
2023/01/26 02:33:26;;;;;;;145.80;38.17;;;;;;;;;;4992409;28;20050;-69
2023/01/26 02:35:51;;;;;;;91.90;25.85;;;;;;;;;;4997228;28;20026;-69
2023/01/26 02:38:18;;;;;;;88.45;27.17;;;;;;;;;;4995823;28;20208;-69
2023/01/26 02:40:47;;;;;;;158.77;39.85;;;;;;;;;;4994796;28;20033;-69
2023/01/26 02:43:12;;;;;;;127.93;37.72;;;;;;;;;;4991676;28;20018;-69
2023/01/26 02:45:39;;;;;;;129.65;34.70;;;;;;;;;;4995279;28;20072;-69
2023/01/26 02:48:05;;;;;;;122.90;31.17;;;;;;;;;;4989175;28;20101;-69
2023/01/26 02:50:30;;;;;;;141.57;35.63;;;;;;;;;;4992381;28;20057;-69
2023/01/26 02:52:56;;;;;;;139.80;36.30;;;;;;;;;;4989570;28;20058;-69
2023/01/26 02:55:21;;;;;;;136.23;36.05;;;;;;;;;;4992872;28;20469;-69
2023/01/26 02:57:46;;;;;;;120.15;30.80;;;;;;;;;;4988748;28;20433;-69
2023/01/26 03:00:16;;;;;;;122.30;31.30;;;;;;;;;;4991946;28;20027;-68
2023/01/26 03:02:41;;;;;;;133.57;35.60;;;;;;;;;;4989609;28;20030;-68
2023/01/26 03:05:07;;;;;;;127.95;35.45;;;;;;;;;;4993954;28;20018;-69
2023/01/26 03:07:32;;;;;;;159.20;38.08;;;;;;;;;;4994225;28;20360;-69
2023/01/26 03:09:57;;;;;;;132.85;32.72;;;;;;;;;;4996226;28;20026;-70
2023/01/26 03:12:23;;;;;;;119.45;33.10;;;;;;;;;;4990549;28;20149;-69
2023/01/26 03:15:33;;;;;;;146.82;36.83;;;;;;;;;;4995877;28;20025;-68
2023/01/26 03:17:33;;;;;;;153.07;36.35;;;;;;;;;;4990406;28;20037;-68
2023/01/26 03:28:23;;;;;;;140.60;36.38;;;;;;;;;;4976934;28;20049;-69
2023/01/26 03:30:49;;;;;;;137.88;36.33;;;;;;;;;;4989906;28;20483;-68
2023/01/26 03:33:15;;;;;;;146.00;36.78;;;;;;;;;;4993822;28;20037;-68
2023/01/26 03:35:40;;;;;;;145.32;35.40;;;;;;;;;;4993133;28;20041;-69
2023/01/26 03:38:05;;;;;;;153.85;38.47;;;;;;;;;;4994010;28;20436;-69
2023/01/26 03:56:56;;;;;;;160.80;39.55;;;;;;;;;;4991914;28;20097;-69
2023/01/26 03:59:36;;;;;;;185.68;43.65;;;;;;;;;;4995775;28;20462;-69
2023/01/26 04:10:13;;;;;;;170.35;40.88;;;;;;;;;;4989961;28;20501;-68
2023/01/26 04:12:39;;;;;;;153.60;40.05;;;;;;;;;;4992173;28;20057;-69
2023/01/26 04:23:20;;;;;;;146.00;34.90;;;;;;;;;;4991206;28;20105;-69
2023/01/26 04:25:46;;;;;;;158.25;35.92;;;;;;;;;;4986006;28;20534;-68
2023/01/26 04:28:11;;;;;;;175.95;38.35;;;;;;;;;;4991602;28;20026;-68
2023/01/26 04:30:37;;;;;;;158.20;38.08;;;;;;;;;;4995310;28;20093;-68
2023/01/26 04:35:33;;;;;;;145.88;34.83;;;;;;;;;;4984764;28;20054;-70
2023/01/26 04:37:58;;;;;;;136.70;34.00;;;;;;;;;;4987806;28;20022;-70
2023/01/26 04:40:24;;;;;;;148.82;35.50;;;;;;;;;;4971223;28;20028;-70
2023/01/26 04:42:49;;;;;;;151.73;37.50;;;;;;;;;;4985096;28;20025;-70
2023/01/26 04:45:14;;;;;;;145.93;34.78;;;;;;;;;;4988613;28;20038;-70
2023/01/26 04:47:39;;;;;;;143.25;36.05;;;;;;;;;;4980211;28;20022;-70
2023/01/26 04:50:04;;;;;;;148.88;34.70;;;;;;;;;;4986281;28;20050;-70
2023/01/26 04:52:30;;;;;;;152.38;35.67;;;;;;;;;;4989387;28;20029;-70
2023/01/26 04:54:55;;;;;;;136.52;32.47;;;;;;;;;;4981145;28;20335;-70
2023/01/26 04:57:22;;;;;;;132.30;31.75;;;;;;;;;;4987381;28;20030;-70
2023/01/26 04:59:47;;;;;;;127.53;29.65;;;;;;;;;;4981351;28;20029;-70
2023/01/26 05:02:12;;;;;;;149.15;34.33;;;;;;;;;;4985982;28;20026;-70
2023/01/26 05:04:37;;;;;;;137.55;32.67;;;;;;;;;;4986521;28;20368;-70
2023/01/26 05:07:02;;;;;;;132.45;30.48;;;;;;;;;;4986494;28;20035;-70
2023/01/26 05:09:28;;;;;;;132.52;32.03;;;;;;;;;;4984306;28;20117;-70
2023/01/26 05:11:53;;;;;;;123.03;29.40;;;;;;;;;;4991181;28;20113;-70
2023/01/26 05:14:18;;;;;;;113.45;29.60;;;;;;;;;;4987292;28;20467;-71
2023/01/26 05:16:43;;;;;;;127.63;30.55;;;;;;;;;;4985430;28;20030;-70
2023/01/26 05:19:08;;;;;;;131.43;31.48;;;;;;;;;;4991319;28;20023;-70
2023/01/26 05:21:34;;;;;;;122.25;31.98;;;;;;;;;;4986303;28;20023;-70
2023/01/26 05:23:59;;;;;;;109.45;29.13;;;;;;;;;;4985935;28;20512;-70
2023/01/26 05:26:24;;;;;;;116.13;28.95;;;;;;;;;;4984408;28;20079;-70
2023/01/26 05:28:49;;;;;;;126.68;29.83;;;;;;;;;;4983957;28;20065;-70
2023/01/26 05:31:14;;;;;;;110.10;29.30;;;;;;;;;;4974566;28;20022;-70
2023/01/26 05:33:40;;;;;;;138.13;31.17;;;;;;;;;;4985201;28;20026;-70
2023/01/26 05:36:05;;;;;;;128.32;29.33;;;;;;;;;;4983928;28;20092;-70
2023/01/26 05:38:30;;;;;;;126.50;30.55;;;;;;;;;;4978910;28;20039;-70
2023/01/26 05:40:55;;;;;;;123.88;31.25;;;;;;;;;;4988974;28;20022;-70
2023/01/26 05:43:21;;;;;;;121.78;29.83;;;;;;;;;;4981173;28;20492;-70
2023/01/26 05:45:46;;;;;;;130.03;30.47;;;;;;;;;;4981750;28;20022;-70
2023/01/26 05:48:11;;;;;;;125.38;33.17;;;;;;;;;;4988811;28;20742;-70
2023/01/26 05:50:36;;;;;;;124.03;30.23;;;;;;;;;;4980317;28;20031;-70
2023/01/26 05:53:01;;;;;;;137.30;32.28;;;;;;;;;;4981888;28;20021;-70
2023/01/26 05:55:27;;;;;;;136.65;32.33;;;;;;;;;;4983246;28;20030;-70
2023/01/26 05:57:52;;;;;;;144.85;32.28;;;;;;;;;;4968298;28;20038;-70
2023/01/26 06:00:17;;;;;;;136.55;31.92;;;;;;;;;;4984775;28;20053;-70
2023/01/26 06:02:43;;;;;;;140.05;31.90;;;;;;;;;;4981622;28;20058;-70
2023/01/26 06:05:08;;;;;;;147.77;29.77;;;;;;;;;;4982382;28;20023;-70
2023/01/26 06:07:33;;;;;;;144.95;32.85;;;;;;;;;;4982768;28;20034;-70
2023/01/26 06:09:59;;;;;;;143.60;32.25;;;;;;;;;;4986529;28;20018;-70
2023/01/26 06:12:24;;;;;;;146.73;35.88;;;;;;;;;;4980544;28;20161;-71
2023/01/26 06:14:49;;;;;;;138.27;33.33;;;;;;;;;;4986146;28;20054;-70
2023/01/26 06:17:15;;;;;;;155.82;33.67;;;;;;;;;;4981518;28;20077;-71
2023/01/26 06:19:41;;;;;;;148.23;34.10;;;;;;;;;;4985693;28;20112;-70
2023/01/26 06:22:07;;;;;;;139.63;30.48;;;;;;;;;;4987146;28;20117;-70
2023/01/26 06:24:33;;;;;;;159.93;33.85;;;;;;;;;;4984812;28;20503;-70
2023/01/26 06:26:58;;;;;;;146.02;32.53;;;;;;;;;;4986083;28;20702;-70
2023/01/26 06:29:23;;;;;;;145.30;32.63;;;;;;;;;;4986367;28;20049;-70
2023/01/26 06:31:48;;;;;;;140.60;31.55;;;;;;;;;;4984564;28;20355;-71
2023/01/26 06:34:14;;;;;;;128.00;30.23;;;;;;;;;;4981050;28;20491;-71
2023/01/26 06:36:40;;;;;;;129.32;29.48;;;;;;;;;;4988350;28;20030;-70
2023/01/26 06:39:06;;;;;;;104.13;26.38;;;;;;;;;;4983128;28;20153;-69
2023/01/26 06:41:31;;;;;;;112.78;27.60;;;;;;;;;;4979121;28;20118;-68
2023/01/26 06:43:57;;;;;;;124.88;27.45;;;;;;;;;;4982828;28;20022;-69
2023/01/26 06:46:22;;;;;;;110.40;25.17;;;;;;;;;;4985421;28;20019;-69
2023/01/26 06:48:47;;;;;;;107.38;27.63;;;;;;;;;;4985513;28;20589;-69
2023/01/26 06:51:15;;;;;;;124.13;27.08;;;;;;;;;;4967416;28;20049;-69
2023/01/26 06:53:47;;;;;;;104.68;25.85;;;;;;;;;;4985650;28;20394;-68
2023/01/26 06:56:13;;;;;;;102.60;25.08;;;;;;;;;;4984875;28;20036;-69
2023/01/26 06:58:38;;;;;;;109.53;25.75;;;;;;;;;;4987074;28;20054;-69
2023/01/26 07:01:03;;;;;;;120.90;27.35;;;;;;;;;;4985863;28;20024;-69
2023/01/26 07:03:29;;;;;;;99.90;25.30;;;;;;;;;;4985978;28;20081;-69
2023/01/26 07:05:54;;;;;;;90.55;22.95;;;;;;;;;;4989076;28;20113;-69
2023/01/26 07:08:20;;;;;;;105.25;25.02;;;;;;;;;;4988527;28;20109;-69
2023/01/26 07:10:45;;;;;;;99.38;25.40;;;;;;;;;;4983442;28;20049;-69
2023/01/26 07:13:10;;;;;;;105.47;24.57;;;;;;;;;;4986510;28;20100;-69
2023/01/26 07:15:35;;;;;;;115.53;30.00;;;;;;;;;;4990220;28;20281;-69
2023/01/26 07:18:00;;;;;;;119.60;27.73;;;;;;;;;;4989066;28;20490;-69
2023/01/26 07:20:26;;;;;;;104.25;25.45;;;;;;;;;;4988807;28;20014;-69
2023/01/26 07:22:51;;;;;;;130.45;30.17;;;;;;;;;;4982891;28;20033;-70
2023/01/26 07:25:17;;;;;;;124.05;34.20;;;;;;;;;;4984139;28;20105;-69
2023/01/26 07:27:42;;;;;;;122.95;29.10;;;;;;;;;;4987723;28;20110;-69
2023/01/26 07:30:08;;;;;;;123.90;27.92;;;;;;;;;;4989054;28;20517;-69
2023/01/26 07:32:33;;;;;;;127.95;28.90;;;;;;;;;;4986644;28;20034;-69
2023/01/26 07:34:59;;;;;;;122.85;28.40;;;;;;;;;;4980393;28;20015;-69
2023/01/26 07:37:27;;;;;;;122.55;27.92;;;;;;;;;;4983737;28;20471;-69
2023/01/26 07:39:52;;;;;;;120.03;27.13;;;;;;;;;;4990037;28;20022;-69
2023/01/26 07:42:17;;;;;;;132.88;30.23;;;;;;;;;;4987260;28;20101;-69
2023/01/26 07:44:43;;;;;;;121.47;29.60;;;;;;;;;;4984576;28;20387;-69
2023/01/26 07:47:08;;;;;;;135.48;32.15;;;;;;;;;;4980127;28;20050;-69
2023/01/26 07:49:33;;;;;;;129.38;30.05;;;;;;;;;;4986629;28;20185;-69
2023/01/26 07:51:58;;;;;;;128.68;28.73;;;;;;;;;;4982723;28;20046;-69
2023/01/26 07:54:23;;;;;;;137.65;31.33;;;;;;;;;;4970749;28;20030;-69
2023/01/26 07:56:53;;;;;;;145.30;30.63;;;;;;;;;;4968964;28;20494;-70
2023/01/26 07:59:18;;;;;;;137.80;28.17;;;;;;;;;;4969986;28;20122;-69
2023/01/26 08:01:43;;;;;;;118.07;27.52;;;;;;;;;;4977138;28;20106;-69
2023/01/26 08:04:10;;;;;;;141.47;31.53;;;;;;;;;;4981835;28;20841;-69
2023/01/26 08:06:35;;;;;;;151.77;31.23;;;;;;;;;;4980228;28;20278;-69
2023/01/26 08:09:00;;;;;;;118.20;28.90;;;;;;;;;;4981164;28;21368;-69
2023/01/26 08:11:26;;;;;;;115.13;26.00;;;;;;;;;;4980629;28;20289;-69
2023/01/26 08:13:51;;;;;;;128.73;28.20;;;;;;;;;;4982283;28;20022;-70
2023/01/26 08:16:16;;;;;;;148.27;30.80;;;;;;;;;;4980332;28;20038;-69
2023/01/26 08:18:42;;;;;;;128.15;30.05;;;;;;;;;;4980109;28;20639;-69
2023/01/26 08:21:08;;;;;;;140.40;32.20;;;;;;;;;;4980257;28;20022;-69
2023/01/26 08:23:33;;;;;;;120.95;26.92;;;;;;;;;;4962967;28;20084;-69
2023/01/26 08:26:03;;;;;;;126.32;27.92;;;;;;;;;;4982783;28;20501;-69
2023/01/26 08:28:28;;;;;;;140.80;31.27;;;;;;;;;;4985817;28;20164;-70
2023/01/26 08:30:53;;;;;;;124.93;28.75;;;;;;;;;;4980354;28;20109;-70
2023/01/26 08:33:18;;;;;;;115.10;26.73;;;;;;;;;;4981434;28;20048;-70
2023/01/26 08:35:44;;;;;;;126.13;27.20;;;;;;;;;;4981697;28;20128;-70
2023/01/26 08:38:09;;;;;;;120.88;29.35;;;;;;;;;;4981473;28;20176;-70
2023/01/26 08:40:34;;;;;;;127.53;31.65;;;;;;;;;;4981900;28;20450;-70
2023/01/26 08:43:01;;;;;;;121.95;29.95;;;;;;;;;;4980747;28;20022;-70
2023/01/26 08:45:26;;;;;;;137.25;30.15;;;;;;;;;;4981925;28;20101;-70
2023/01/26 08:47:51;;;;;;;121.05;29.83;;;;;;;;;;4981720;28;20035;-69
2023/01/26 08:50:17;;;;;;;125.13;29.13;;;;;;;;;;4982145;28;20088;-69
2023/01/26 08:52:42;;;;;;;132.98;28.63;;;;;;;;;;4981619;28;20026;-69
2023/01/26 08:55:07;;;;;;;129.65;29.55;;;;;;;;;;4982253;28;20369;-69
2023/01/26 08:57:33;;;;;;;148.07;31.85;;;;;;;;;;4979493;28;20034;-69
2023/01/26 08:59:58;;;;;;;155.50;34.88;;;;;;;;;;4979591;28;20477;-69
2023/01/26 09:02:23;;;;;;;162.57;38.03;;;;;;;;;;4981263;28;20038;-69
2023/01/26 09:04:48;;;;;;;142.85;30.38;;;;;;;;;;4981763;28;20145;-69
2023/01/26 09:07:13;;;;;;;135.35;30.83;;;;;;;;;;4981739;28;20026;-69
2023/01/26 09:09:38;;;;;;;144.40;28.98;;;;;;;;;;4981156;28;20069;-69
2023/01/26 09:12:04;;;;;;;157.77;36.83;;;;;;;;;;4980588;28;20541;-69
2023/01/26 09:14:29;;;;;;;157.73;34.88;;;;;;;;;;4979938;28;20471;-69
2023/01/26 09:16:54;;;;;;;131.75;30.60;;;;;;;;;;4980984;28;20014;-69
2023/01/26 09:19:19;;;;;;;136.02;31.23;;;;;;;;;;4981052;28;20038;-69
2023/01/26 09:21:44;;;;;;;142.27;31.58;;;;;;;;;;4981269;28;20023;-69
2023/01/26 09:24:10;;;;;;;130.30;30.13;;;;;;;;;;4964197;28;20481;-69
2023/01/26 09:26:35;;;;;;;132.90;30.17;;;;;;;;;;4979903;28;20077;-69
2023/01/26 09:29:00;;;;;;;123.20;30.35;;;;;;;;;;4979860;28;20045;-69
2023/01/26 09:31:25;;;;;;;133.52;30.15;;;;;;;;;;4980539;28;20027;-69
2023/01/26 09:33:50;;;;;;;156.43;35.72;;;;;;;;;;4980266;28;20479;-69
2023/01/26 09:36:16;;;;;;;117.85;26.23;;;;;;;;;;4980818;28;20042;-69
2023/01/26 09:38:41;;;;;;;125.95;28.48;;;;;;;;;;4981284;28;20085;-69
2023/01/26 09:41:10;;;;;;;127.65;27.65;;;;;;;;;;4980265;28;20025;-69
2023/01/26 09:43:37;;;;;;;122.65;27.40;;;;;;;;;;4980033;28;20073;-69
2023/01/26 09:46:20;;;;;;;137.05;29.15;;;;;;;;;;4980596;28;20029;-69
2023/01/26 09:48:54;;;;;;;121.38;31.52;;;;;;;;;;4964023;28;20026;-69
2023/01/26 09:51:23;;;;;;;122.18;28.80;;;;;;;;;;4980884;28;20455;-69
2023/01/26 09:53:55;;;;;;;108.45;27.35;;;;;;;;;;4964989;28;20530;-70
2023/01/26 09:56:22;;;;;;;139.00;31.48;;;;;;;;;;4983639;28;20050;-71
2023/01/26 09:58:59;;;;;;;132.55;31.00;;;;;;;;;;4983329;28;20622;-71
2023/01/26 10:01:30;;;;;;;139.05;31.90;;;;;;;;;;4984097;28;20054;-71
2023/01/26 10:04:11;;;;;;;137.32;28.80;;;;;;;;;;4985795;28;20061;-71
2023/01/26 10:06:37;;;;;;;120.97;28.00;;;;;;;;;;4982898;28;20117;-71
2023/01/26 10:09:34;;;;;;;131.27;30.02;;;;;;;;;;4982194;28;20510;-71
2023/01/26 10:12:03;;;;;;;121.07;27.13;;;;;;;;;;4930056;28;20061;-71
2023/01/26 10:14:31;;;;;;;144.73;31.98;;;;;;;;;;4987841;28;20034;-71
2023/01/26 10:16:56;;;;;;;149.48;32.30;;;;;;;;;;4982550;28;20027;-71
2023/01/26 10:19:27;;;;;;;164.23;32.35;;;;;;;;;;4981761;28;20057;-71
2023/01/26 10:21:53;;;;;;;158.23;34.25;;;;;;;;;;4979744;28;20340;-71
2023/01/26 10:24:20;;;;;;;139.60;32.63;;;;;;;;;;4983115;28;20022;-71
2023/01/26 10:26:46;;;;;;;163.30;35.63;;;;;;;;;;4987889;28;20037;-71
2023/01/26 10:29:14;;;;;;;144.73;30.13;;;;;;;;;;4985863;28;20034;-70
2023/01/26 10:31:40;;;;;;;170.50;34.55;;;;;;;;;;4988116;28;20391;-70
2023/01/26 10:36:32;;;;;;;143.13;34.10;;;;;;;;;;4967209;28;20170;-68
2023/01/26 10:39:02;;;;;;;168.98;34.72;;;;;;;;;;4968518;28;20125;-67
2023/01/26 10:41:27;;;;;;;141.57;32.80;;;;;;;;;;4972562;28;20055;-69
2023/01/26 10:43:59;;;;;;;149.77;32.55;;;;;;;;;;4967681;28;20110;-68
2023/01/26 10:46:24;;;;;;;144.75;33.28;;;;;;;;;;4962684;28;20026;-68
2023/01/26 10:48:53;;;;;;;159.95;32.65;;;;;;;;;;4962034;28;20027;-68
2023/01/26 10:51:23;;;;;;;168.85;34.08;;;;;;;;;;4967039;28;20105;-68
2023/01/26 10:53:48;;;;;;;154.85;33.35;;;;;;;;;;4967270;28;20034;-67
2023/01/26 10:56:15;;;;;;;141.95;33.67;;;;;;;;;;4962007;28;20023;-68
2023/01/26 10:58:41;;;;;;;151.18;36.40;;;;;;;;;;4967135;28;20620;-67
2023/01/26 11:01:11;;;;;;;180.55;37.53;;;;;;;;;;4969457;28;20026;-68
2023/01/26 11:03:40;;;;;;;177.40;34.28;;;;;;;;;;4971514;28;20055;-68
2023/01/26 11:06:06;;;;;;;170.18;34.05;;;;;;;;;;4965745;28;20102;-67
2023/01/26 11:08:35;;;;;;;161.30;35.95;;;;;;;;;;4964831;28;20652;-68
2023/01/26 11:11:02;;;;;;;150.68;31.85;;;;;;;;;;4967763;28;20026;-68
2023/01/26 11:13:27;;;;;;;156.18;33.45;;;;;;;;;;4965075;28;20475;-68
2023/01/26 11:16:05;;;;;;;151.38;35.25;;;;;;;;;;4965084;28;20050;-68
2023/01/26 11:18:30;;;;;;;151.93;32.75;;;;;;;;;;4966205;28;20391;-68
2023/01/26 11:20:55;;;;;;;153.05;34.53;;;;;;;;;;4966954;28;20015;-68
2023/01/26 11:23:39;;;;;;;139.15;32.60;;;;;;;;;;4952212;28;20270;-68
2023/01/26 11:26:04;;;;;;;143.68;33.10;;;;;;;;;;4951259;28;20270;-68
2023/01/26 11:28:35;;;;;;;128.00;31.00;;;;;;;;;;4969898;28;20046;-69
2023/01/26 11:31:11;;;;;;;146.45;32.08;;;;;;;;;;4967802;28;20274;-69
2023/01/26 11:33:39;;;;;;;133.00;34.92;;;;;;;;;;4962862;28;20023;-69
2023/01/26 11:36:11;;;;;;;135.05;30.00;;;;;;;;;;4965711;28;20440;-69
2023/01/26 11:38:40;;;;;;;126.00;31.10;;;;;;;;;;4966545;28;20037;-69
2023/01/26 11:41:05;;;;;;;124.75;29.48;;;;;;;;;;4959159;28;20034;-69
2023/01/26 11:43:48;;;;;;;131.35;32.65;;;;;;;;;;4961875;28;20015;-69
2023/01/26 11:46:25;;;;;;;138.55;29.63;;;;;;;;;;4964127;28;20023;-69
2023/01/26 11:49:09;;;;;;;105.03;26.10;;;;;;;;;;4968223;28;20077;-69
2023/01/26 11:51:48;;;;;;;113.63;24.67;;;;;;;;;;4969171;28;20077;-68
2023/01/26 11:54:39;;;;;;;101.68;24.90;;;;;;;;;;4968637;28;20021;-68
2023/01/26 11:57:04;;;;;;;93.38;24.65;;;;;;;;;;4932059;28;20035;-68
2023/01/26 11:59:41;;;;;;;111.43;26.00;;;;;;;;;;4969213;28;20140;-68
2023/01/26 12:02:25;;;;;;;136.00;33.20;;;;;;;;;;4965617;28;20254;-69
2023/01/26 12:04:51;;;;;;;130.57;32.25;;;;;;;;;;4965156;28;20481;-69
2023/01/26 12:07:22;;;;;;;117.05;29.00;;;;;;;;;;4964071;28;20019;-69
2023/01/26 12:09:49;;;;;;;108.82;26.30;;;;;;;;;;4964186;28;20029;-69
2023/01/26 12:12:27;;;;;;;120.32;27.30;;;;;;;;;;4969552;28;20319;-69
2023/01/26 12:14:56;;;;;;;138.63;27.77;;;;;;;;;;4961939;28;20101;-69
2023/01/26 12:17:30;;;;;;;139.43;31.30;;;;;;;;;;4961231;28;20022;-69
2023/01/26 12:20:22;;;;;;;130.68;31.25;;;;;;;;;;4969536;28;20156;-69
2023/01/26 12:22:59;;;;;;;112.47;28.90;;;;;;;;;;4963615;28;20031;-69
2023/01/26 12:25:35;;;;;;;152.07;33.35;;;;;;;;;;4962796;28;20023;-69
2023/01/26 12:28:05;;;;;;;94.03;24.92;;;;;;;;;;4957723;28;20029;-69
2023/01/26 12:30:34;;;;;;;119.15;28.45;;;;;;;;;;4955812;28;20065;-69
2023/01/26 12:32:59;;;;;;;102.55;25.25;;;;;;;;;;4969764;28;20030;-69
2023/01/26 12:35:42;;;;;;;124.63;27.73;;;;;;;;;;4970039;28;20018;-69
2023/01/26 12:38:17;;;;;;;115.65;26.50;;;;;;;;;;4969172;28;20014;-69
2023/01/26 12:41:06;;;;;;;131.50;29.42;;;;;;;;;;4957543;28;20031;-69
2023/01/26 12:43:37;;;;;;;113.18;26.60;;;;;;;;;;4930032;28;20129;-68
2023/01/26 12:46:04;;;;;;;119.85;30.35;;;;;;;;;;4968858;28;20019;-68
2023/01/26 12:48:36;;;;;;;116.72;27.75;;;;;;;;;;4968010;28;20114;-68
2023/01/26 12:51:07;;;;;;;116.75;26.48;;;;;;;;;;4952025;28;20027;-69
2023/01/26 12:53:35;;;;;;;102.93;24.85;;;;;;;;;;4951634;28;20442;-69
2023/01/26 12:56:00;;;;;;;123.82;31.98;;;;;;;;;;4967379;28;20029;-68
2023/01/26 12:58:37;;;;;;;108.47;28.15;;;;;;;;;;4969152;28;20027;-69
2023/01/26 13:01:08;;;;;;;96.00;23.52;;;;;;;;;;4969369;28;20270;-68
2023/01/26 13:03:37;;;;;;;106.72;24.67;;;;;;;;;;4968838;28;20034;-67
2023/01/26 13:06:08;;;;;;;92.40;24.05;;;;;;;;;;4968494;28;20023;-68
2023/01/26 13:08:33;;;;;;;96.05;25.30;;;;;;;;;;4967422;28;20561;-69
2023/01/26 13:11:05;;;;;;;95.90;24.30;;;;;;;;;;4970009;28;20062;-68
2023/01/26 13:13:31;;;;;;;82.75;21.90;;;;;;;;;;4967596;28;20270;-68
2023/01/26 13:16:14;;;;;;;99.10;25.38;;;;;;;;;;4967058;28;20014;-68
2023/01/26 13:18:48;;;;;;;104.60;26.80;;;;;;;;;;4964932;28;20030;-69
2023/01/26 13:21:34;;;;;;;88.05;21.83;;;;;;;;;;4968032;28;20471;-68
2023/01/26 13:23:59;;;;;;;87.25;22.20;;;;;;;;;;4956831;28;20121;-68
2023/01/26 13:26:30;;;;;;;86.10;24.80;;;;;;;;;;4962825;28;20098;-68
2023/01/26 13:29:15;;;;;;;81.65;22.15;;;;;;;;;;4968145;28;20018;-69
2023/01/26 13:31:40;;;;;;;87.38;23.27;;;;;;;;;;4970234;28;20539;-68
2023/01/26 13:34:07;;;;;;;77.00;24.17;;;;;;;;;;4970325;28;20085;-68
2023/01/26 13:36:34;;;;;;;77.65;23.70;;;;;;;;;;4970051;28;20077;-68
2023/01/26 13:39:09;;;;;;;81.40;24.85;;;;;;;;;;4969887;28;20023;-69
2023/01/26 13:41:42;;;;;;;85.43;25.42;;;;;;;;;;4969509;28;20513;-68
2023/01/26 13:44:13;;;;;;;87.13;24.25;;;;;;;;;;4969026;28;20026;-68
2023/01/26 13:46:42;;;;;;;75.68;23.65;;;;;;;;;;4972176;28;20054;-69
2023/01/26 13:49:22;;;;;;;79.20;24.00;;;;;;;;;;4971726;28;20019;-69
2023/01/26 13:51:47;;;;;;;71.43;21.58;;;;;;;;;;4969411;28;20109;-69
2023/01/26 13:54:13;;;;;;;78.55;23.17;;;;;;;;;;4972080;28;20392;-69
2023/01/26 13:56:39;;;;;;;74.32;23.73;;;;;;;;;;4969804;28;20037;-69
2023/01/26 13:59:06;;;;;;;85.13;23.90;;;;;;;;;;4970956;28;20365;-68
2023/01/26 14:01:31;;;;;;;102.57;29.42;;;;;;;;;;4968969;28;20110;-69
2023/01/26 14:04:04;;;;;;;80.70;23.60;;;;;;;;;;4971249;28;20173;-69
2023/01/26 14:06:29;;;;;;;72.30;21.05;;;;;;;;;;4966228;28;20046;-69
2023/01/26 14:08:56;;;;;;;78.30;22.00;;;;;;;;;;4968153;28;20064;-68
2023/01/26 14:11:22;;;;;;;66.47;20.00;;;;;;;;;;4964976;28;20035;-68
2023/01/26 14:13:50;;;;;;;67.60;21.55;;;;;;;;;;4970822;28;20109;-68
2023/01/26 14:16:20;;;;;;;75.25;21.23;;;;;;;;;;4970624;28;20030;-69
2023/01/26 14:18:47;;;;;;;59.30;19.20;;;;;;;;;;4968881;28;20029;-69
2023/01/26 14:21:17;;;;;;;74.13;22.80;;;;;;;;;;4972110;28;20483;-68
2023/01/26 14:23:43;;;;;;;67.22;20.23;;;;;;;;;;4971849;28;20042;-68
2023/01/26 14:26:18;;;;;;;69.63;20.98;;;;;;;;;;4970438;28;20018;-68
2023/01/26 14:28:44;;;;;;;56.85;20.17;;;;;;;;;;4964915;28;20019;-68
2023/01/26 14:31:13;;;;;;;55.53;19.35;;;;;;;;;;4966607;28;20113;-68
2023/01/26 14:33:39;;;;;;;71.73;19.73;;;;;;;;;;4970410;28;20023;-69
2023/01/26 14:36:04;;;;;;;56.28;19.73;;;;;;;;;;4971492;28;20729;-68
2023/01/26 14:38:38;;;;;;;57.28;19.83;;;;;;;;;;4970520;28;20019;-68
2023/01/26 14:41:09;;;;;;;57.75;18.33;;;;;;;;;;4969366;28;20019;-68
2023/01/26 14:43:34;;;;;;;46.88;16.38;;;;;;;;;;4954599;28;20527;-68
2023/01/26 14:46:22;;;;;;;54.28;18.65;;;;;;;;;;4968692;28;20219;-69
2023/01/26 14:48:53;;;;;;;64.50;19.38;;;;;;;;;;4968579;28;20023;-68
2023/01/26 14:51:23;;;;;;;61.30;17.95;;;;;;;;;;4972534;28;20030;-68
2023/01/26 14:53:49;;;;;;;47.15;16.48;;;;;;;;;;4968520;28;20030;-68
2023/01/26 14:56:19;;;;;;;52.72;16.77;;;;;;;;;;4972241;28;20049;-68